Time;durP1;ratioP1;P1;durP2;ratioP2;P2;SDS_P1;SDS_P2;PMS_P1;PMS_P2;Temp;Humidity;BMP_temperature;BMP_pressure;BME280_temperature;BME280_humidity;BME280_pressure;Samples;Min_cycle;Max_cycle;Signal;HPM_P1;HPM_P2
2023/03/12 00:01:19;;;;;;;8.40;5.93;;;1.50;69.80;;;;;;5078601;28;20205;-83
2023/03/12 00:03:47;;;;;;;10.63;5.37;;;1.30;71.50;;;;;;5077582;28;20205;-83
2023/03/12 00:06:14;;;;;;;7.23;5.10;;;1.20;71.90;;;;;;5073941;28;20197;-83
2023/03/12 00:08:41;;;;;;;7.93;5.07;;;1.10;71.30;;;;;;5074040;28;20288;-84
2023/03/12 00:11:11;;;;;;;8.63;5.27;;;1.10;72.30;;;;;;5074122;28;20224;-84
2023/03/12 00:13:39;;;;;;;11.30;5.87;;;1.20;73.70;;;;;;5074800;28;20233;-84
2023/03/12 00:16:08;;;;;;;6.83;5.40;;;1.30;73.60;;;;;;5078837;28;20351;-83
2023/03/12 00:18:37;;;;;;;10.43;5.77;;;1.30;71.70;;;;;;5075020;28;20228;-85
2023/03/12 00:21:20;;;;;;;8.90;5.67;;;1.20;72.70;;;;;;5074429;28;20208;-83
2023/03/12 00:23:48;;;;;;;8.67;5.40;;;1.10;75.00;;;;;;5078407;28;20208;-82
2023/03/12 00:26:17;;;;;;;8.50;5.37;;;1.10;75.00;;;;;;5073897;28;20213;-82
2023/03/12 00:28:44;;;;;;;8.23;5.03;;;1.10;74.40;;;;;;5074206;28;20204;-82
2023/03/12 00:31:24;;;;;;;6.73;5.20;;;1.10;75.00;;;;;;5072013;28;20263;-82
2023/03/12 00:33:53;;;;;;;9.73;5.77;;;1.10;75.30;;;;;;5083728;28;20317;-82
2023/03/12 00:36:23;;;;;;;9.87;6.30;;;1.30;75.40;;;;;;5079192;28;20197;-82
2023/03/12 00:38:50;;;;;;;8.27;5.97;;;1.40;74.80;;;;;;5072989;28;21919;-82
2023/03/12 00:41:19;;;;;;;7.17;5.07;;;1.40;72.50;;;;;;5081892;28;20204;-85
2023/03/12 00:43:46;;;;;;;7.53;5.13;;;1.40;71.60;;;;;;5078016;28;20205;-83
2023/03/12 00:46:13;;;;;;;9.47;5.80;;;1.40;71.80;;;;;;5077475;28;20200;-82
2023/03/12 00:48:40;;;;;;;8.97;5.47;;;1.20;72.40;;;;;;5080548;28;20192;-82
2023/03/12 00:51:09;;;;;;;8.43;5.37;;;1.20;72.80;;;;;;5079568;28;20193;-82
2023/03/12 00:53:36;;;;;;;9.70;5.70;;;1.20;74.10;;;;;;5081005;28;20221;-83
2023/03/12 00:56:04;;;;;;;7.63;5.17;;;1.10;74.00;;;;;;5076110;28;20197;-81
2023/03/12 00:58:31;;;;;;;6.23;4.50;;;1.00;74.30;;;;;;5079413;28;20192;-81
2023/03/12 01:00:58;;;;;;;9.60;5.13;;;0.90;75.30;;;;;;5082828;28;20207;-82
2023/03/12 01:03:25;;;;;;;7.20;5.40;;;1.00;75.90;;;;;;5074439;28;20205;-82
2023/03/12 01:05:54;;;;;;;9.70;5.20;;;0.90;76.00;;;;;;5083235;28;20193;-81
2023/03/12 01:08:24;;;;;;;9.33;4.90;;;0.80;76.20;;;;;;5074866;28;20563;-81
2023/03/12 01:10:51;;;;;;;7.00;4.50;;;0.70;76.20;;;;;;5083526;28;20197;-82
2023/03/12 01:13:18;;;;;;;9.10;5.33;;;0.70;77.60;;;;;;5075848;28;20208;-82
2023/03/12 01:15:45;;;;;;;7.33;4.97;;;0.60;77.80;;;;;;5078514;28;20205;-83
2023/03/12 01:18:12;;;;;;;8.67;4.77;;;0.70;81.00;;;;;;5082252;28;21281;-82
2023/03/12 01:20:40;;;;;;;8.60;5.03;;;0.70;82.00;;;;;;5079811;28;20603;-82
2023/03/12 01:23:07;;;;;;;10.23;4.90;;;0.80;80.20;;;;;;5073759;28;20277;-82
2023/03/12 01:25:35;;;;;;;6.43;4.33;;;0.90;78.70;;;;;;5079637;28;20200;-82
2023/03/12 01:28:03;;;;;;;9.00;4.57;;;0.80;79.10;;;;;;5077135;28;20291;-82
2023/03/12 01:30:31;;;;;;;8.47;4.60;;;0.70;79.20;;;;;;5074582;28;20206;-82
2023/03/12 01:32:58;;;;;;;9.13;4.50;;;0.60;81.00;;;;;;5059750;28;20217;-81
2023/03/12 01:35:25;;;;;;;8.37;4.77;;;0.90;80.60;;;;;;5084365;28;20200;-83
2023/03/12 01:37:54;;;;;;;7.60;4.70;;;1.10;79.70;;;;;;5081673;28;21169;-82
2023/03/12 01:40:24;;;;;;;6.23;4.47;;;1.20;79.80;;;;;;5080112;28;20197;-81
2023/03/12 01:42:57;;;;;;;8.63;5.00;;;1.20;81.20;;;;;;5076680;28;20258;-83
2023/03/12 01:46:03;;;;;;;10.40;5.10;;;1.20;80.80;;;;;;5078752;28;20192;-82
2023/03/12 01:48:34;;;;;;;8.73;4.80;;;1.30;78.30;;;;;;5080189;28;20280;-82
2023/03/12 01:51:02;;;;;;;8.93;4.70;;;1.40;79.40;;;;;;5081949;28;20220;-84
2023/03/12 01:53:30;;;;;;;5.67;4.17;;;1.70;77.30;;;;;;5083998;28;20225;-82
2023/03/12 01:56:00;;;;;;;8.00;4.00;;;1.80;76.10;;;;;;5075893;28;20286;-82
2023/03/12 01:58:31;;;;;;;6.57;4.00;;;1.80;75.40;;;;;;5077174;28;20197;-83
2023/03/12 02:00:58;;;;;;;6.47;4.03;;;1.70;75.40;;;;;;5079777;28;20351;-82
2023/03/12 02:03:26;;;;;;;6.83;4.53;;;1.70;75.40;;;;;;5078624;28;20209;-84
2023/03/12 02:05:57;;;;;;;5.37;3.60;;;1.70;75.10;;;;;;5082939;28;20197;-85
2023/03/12 02:08:24;;;;;;;5.67;4.20;;;1.70;76.60;;;;;;5080318;28;20205;-84
2023/03/12 02:10:51;;;;;;;6.83;4.47;;;1.70;75.20;;;;;;5081490;28;20202;-83
2023/03/12 02:13:18;;;;;;;7.73;4.57;;;1.60;73.80;;;;;;5078353;28;20227;-84
2023/03/12 02:15:46;;;;;;;7.60;4.20;;;1.60;75.40;;;;;;5077986;28;20750;-85
2023/03/12 02:18:16;;;;;;;6.27;4.33;;;1.70;75.10;;;;;;5080766;28;20205;-84
2023/03/12 02:20:50;;;;;;;5.07;3.67;;;1.60;74.40;;;;;;5084611;28;20216;-84
2023/03/12 02:23:25;;;;;;;7.17;4.20;;;1.60;75.00;;;;;;5080074;28;20221;-84
2023/03/12 02:25:55;;;;;;;5.10;3.80;;;1.60;75.30;;;;;;5077749;28;20307;-84
2023/03/12 02:28:26;;;;;;;5.47;3.70;;;1.50;75.00;;;;;;5086637;28;20196;-83
2023/03/12 02:30:59;;;;;;;5.63;3.63;;;1.60;75.70;;;;;;5085506;28;20653;-84
2023/03/12 02:33:26;;;;;;;6.50;3.50;;;1.60;75.60;;;;;;5084428;28;20798;-84
2023/03/12 02:35:53;;;;;;;5.13;3.50;;;1.70;75.00;;;;;;5079677;28;20201;-84
2023/03/12 02:38:34;;;;;;;4.93;3.70;;;1.60;75.00;;;;;;5088079;28;20199;-84
2023/03/12 02:41:08;;;;;;;10.17;4.23;;;1.50;75.10;;;;;;5080350;28;20274;-82
2023/03/12 02:43:35;;;;;;;5.40;3.73;;;1.40;75.20;;;;;;5073891;28;20205;-83
2023/03/12 02:46:02;;;;;;;7.13;3.70;;;1.40;75.80;;;;;;5081432;28;20208;-83
2023/03/12 02:48:29;;;;;;;4.63;3.50;;;1.30;75.70;;;;;;5082518;28;20204;-84
2023/03/12 02:50:56;;;;;;;4.93;3.50;;;1.20;76.70;;;;;;5080114;28;20197;-83
2023/03/12 02:53:24;;;;;;;6.17;3.60;;;1.10;77.40;;;;;;5077113;28;20217;-81
2023/03/12 02:55:51;;;;;;;6.50;3.70;;;1.10;78.80;;;;;;5083478;28;20276;-82
2023/03/12 02:58:19;;;;;;;5.67;3.97;;;1.00;79.60;;;;;;5079159;28;20568;-82
2023/03/12 03:00:48;;;;;;;5.47;3.33;;;1.00;79.50;;;;;;5078925;28;20669;-83
2023/03/12 03:03:15;;;;;;;7.00;3.70;;;0.90;81.10;;;;;;5084925;28;20194;-82
2023/03/12 03:05:44;;;;;;;3.97;3.33;;;0.90;80.30;;;;;;5082612;28;20204;-82
2023/03/12 03:08:10;;;;;;;4.87;3.30;;;1.00;80.20;;;;;;5085154;28;20201;-83
2023/03/12 03:10:37;;;;;;;5.93;3.47;;;0.90;79.50;;;;;;5093771;28;20219;-85
2023/03/12 03:13:04;;;;;;;4.87;3.20;;;1.00;79.40;;;;;;5106928;28;20224;-81
2023/03/12 03:15:33;;;;;;;7.40;3.27;;;1.00;80.10;;;;;;5111732;28;20183;-85
2023/03/12 03:18:02;;;;;;;4.57;3.57;;;1.00;81.10;;;;;;5092335;28;20193;-82
2023/03/12 03:20:30;;;;;;;5.33;3.50;;;1.10;80.90;;;;;;5082121;28;20455;-82
2023/03/12 03:22:57;;;;;;;3.73;3.00;;;1.10;80.60;;;;;;5062439;28;20635;-82
2023/03/12 03:25:24;;;;;;;6.80;3.40;;;1.20;79.30;;;;;;5080905;28;20193;-82
2023/03/12 03:27:51;;;;;;;4.13;3.30;;;1.20;78.90;;;;;;5085898;28;20197;-82
2023/03/12 03:30:19;;;;;;;5.23;3.33;;;1.20;81.30;;;;;;5078691;28;20193;-82
2023/03/12 03:32:48;;;;;;;5.27;3.70;;;1.20;80.90;;;;;;5080631;28;20205;-82
2023/03/12 03:35:15;;;;;;;5.50;3.47;;;1.20;80.30;;;;;;5086378;28;20196;-83
2023/03/12 03:37:42;;;;;;;5.43;3.40;;;1.20;80.20;;;;;;5079790;28;20273;-82
2023/03/12 03:40:11;;;;;;;5.40;3.73;;;1.20;81.60;;;;;;5077963;28;20199;-82
2023/03/12 03:42:39;;;;;;;4.60;3.10;;;1.30;81.40;;;;;;5073469;28;20201;-82
2023/03/12 03:45:08;;;;;;;5.33;3.40;;;1.30;82.00;;;;;;5078995;28;20221;-82
2023/03/12 03:47:35;;;;;;;4.50;3.20;;;1.30;82.90;;;;;;5075064;28;20208;-82
2023/03/12 03:50:04;;;;;;;5.63;3.57;;;1.30;82.90;;;;;;5079934;28;20197;-83
2023/03/12 03:52:31;;;;;;;5.70;3.73;;;1.40;83.50;;;;;;5077668;28;20189;-82
2023/03/12 03:54:58;;;;;;;4.73;3.77;;;1.40;82.90;;;;;;5083045;28;20244;-82
2023/03/12 03:57:26;;;;;;;4.20;3.07;;;1.50;84.40;;;;;;5083592;28;20261;-82
2023/03/12 03:59:52;;;;;;;5.73;3.47;;;1.60;84.10;;;;;;5074072;28;20198;-82
2023/03/12 04:02:19;;;;;;;5.00;3.50;;;1.60;83.60;;;;;;5080111;28;20205;-82
2023/03/12 04:04:46;;;;;;;4.50;3.27;;;1.60;84.10;;;;;;5076506;28;20212;-83
2023/03/12 04:07:15;;;;;;;6.33;3.50;;;1.60;83.50;;;;;;5080779;28;20200;-82
2023/03/12 04:09:42;;;;;;;5.70;3.50;;;1.70;84.10;;;;;;5074553;28;20760;-83
2023/03/12 04:12:09;;;;;;;5.03;3.57;;;1.80;83.60;;;;;;5079800;28;20204;-83
2023/03/12 04:14:39;;;;;;;5.97;3.90;;;2.00;81.00;;;;;;5084202;28;20589;-83
2023/03/12 04:17:06;;;;;;;7.07;4.40;;;2.00;81.00;;;;;;5078069;28;20208;-82
2023/03/12 04:19:33;;;;;;;6.00;4.03;;;1.90;82.50;;;;;;5078585;28;20204;-83
2023/03/12 04:22:00;;;;;;;6.80;4.40;;;2.00;83.30;;;;;;5081462;28;20546;-83
2023/03/12 04:24:29;;;;;;;5.30;4.13;;;1.90;82.50;;;;;;5078216;28;20246;-83
2023/03/12 04:26:57;;;;;;;6.30;3.90;;;1.90;83.50;;;;;;5079149;28;20203;-83
2023/03/12 04:29:24;;;;;;;6.33;4.60;;;1.90;85.40;;;;;;5077698;28;20352;-83
2023/03/12 04:31:51;;;;;;;7.03;4.50;;;1.90;85.80;;;;;;5085347;28;20209;-83
2023/03/12 04:34:18;;;;;;;6.03;4.33;;;1.80;85.20;;;;;;5080754;28;20220;-83
2023/03/12 04:36:46;;;;;;;8.07;4.70;;;1.90;86.60;;;;;;5069577;28;20207;-83
2023/03/12 04:39:13;;;;;;;6.67;5.00;;;1.80;87.00;;;;;;5074996;28;20197;-83
2023/03/12 04:41:42;;;;;;;9.93;5.33;;;1.90;87.00;;;;;;5085584;28;20690;-83
2023/03/12 04:44:09;;;;;;;6.30;4.90;;;1.90;87.00;;;;;;5078160;28;20300;-83
2023/03/12 04:46:35;;;;;;;6.67;4.80;;;1.90;86.50;;;;;;5080731;28;20197;-83
2023/03/12 04:49:03;;;;;;;8.50;4.43;;;1.90;86.40;;;;;;5073350;28;20194;-83
2023/03/12 04:51:30;;;;;;;7.37;4.87;;;1.90;87.00;;;;;;5078431;28;20983;-84
2023/03/12 04:53:57;;;;;;;5.20;3.93;;;1.90;87.00;;;;;;5083482;28;20262;-82
2023/03/12 04:56:24;;;;;;;5.10;4.23;;;2.00;87.30;;;;;;5079776;28;20242;-83
2023/03/12 04:58:53;;;;;;;4.43;3.80;;;2.10;85.50;;;;;;5075391;28;20192;-83
2023/03/12 05:01:24;;;;;;;4.33;3.73;;;2.30;84.50;;;;;;5082553;28;20353;-83
2023/03/12 05:03:52;;;;;;;5.30;3.97;;;2.30;83.90;;;;;;5075169;28;20205;-83
2023/03/12 05:06:19;;;;;;;5.47;4.27;;;2.40;83.30;;;;;;5077488;28;20217;-83
2023/03/12 05:08:46;;;;;;;8.50;4.70;;;2.40;82.60;;;;;;5075699;28;20205;-83
2023/03/12 05:11:16;;;;;;;4.90;4.07;;;2.30;84.30;;;;;;5077233;28;20699;-83
2023/03/12 05:13:43;;;;;;;5.33;4.30;;;2.20;85.80;;;;;;5077398;28;20219;-84
2023/03/12 05:16:12;;;;;;;5.80;3.93;;;2.10;87.10;;;;;;5079611;28;20200;-83
2023/03/12 05:18:39;;;;;;;6.70;4.30;;;2.10;87.10;;;;;;5076685;28;20209;-83
2023/03/12 05:21:08;;;;;;;6.87;4.80;;;2.10;87.10;;;;;;5077656;28;20197;-83
2023/03/12 05:23:38;;;;;;;4.80;4.23;;;2.10;87.10;;;;;;5075193;28;20221;-82
2023/03/12 05:26:07;;;;;;;7.83;4.57;;;2.00;87.10;;;;;;5069974;28;20223;-84
2023/03/12 05:28:34;;;;;;;6.23;4.43;;;2.00;88.30;;;;;;5080658;28;20197;-83
2023/03/12 05:31:01;;;;;;;5.97;4.27;;;2.00;88.30;;;;;;5074287;28;20198;-83
2023/03/12 05:33:29;;;;;;;6.60;5.10;;;2.00;89.10;;;;;;5077792;28;20231;-83
2023/03/12 05:35:56;;;;;;;7.53;4.70;;;1.90;89.70;;;;;;5076710;28;20198;-83
2023/03/12 05:38:23;;;;;;;5.10;4.60;;;1.80;89.90;;;;;;5077941;28;20205;-85
2023/03/12 05:40:54;;;;;;;6.30;4.83;;;1.90;90.50;;;;;;5082647;28;20194;-83
2023/03/12 05:43:21;;;;;;;5.23;4.40;;;1.80;90.60;;;;;;5083821;28;20194;-83
2023/03/12 05:45:48;;;;;;;8.23;4.80;;;1.80;90.60;;;;;;5078789;28;20201;-84
2023/03/12 05:48:15;;;;;;;6.20;4.73;;;1.80;90.80;;;;;;5079535;28;20200;-84
2023/03/12 05:50:44;;;;;;;7.13;4.97;;;1.80;91.20;;;;;;5080487;28;20205;-83
2023/03/12 05:53:11;;;;;;;9.47;5.53;;;1.90;91.30;;;;;;5082282;28;20198;-84
2023/03/12 05:55:39;;;;;;;7.17;4.43;;;1.90;91.20;;;;;;5079877;28;20229;-83
2023/03/12 05:58:07;;;;;;;6.43;4.87;;;2.00;91.00;;;;;;5082365;28;20205;-83
2023/03/12 06:00:36;;;;;;;5.33;4.43;;;2.20;91.00;;;;;;5080250;28;20208;-84
2023/03/12 06:03:03;;;;;;;9.23;5.20;;;2.30;91.00;;;;;;5080363;28;20288;-83
2023/03/12 06:05:31;;;;;;;5.77;4.60;;;2.40;90.70;;;;;;5085615;28;20233;-84
2023/03/12 06:07:59;;;;;;;7.27;5.23;;;2.50;90.70;;;;;;5084604;28;20205;-83
2023/03/12 06:10:27;;;;;;;5.57;4.80;;;2.50;90.90;;;;;;5079737;28;20189;-83
2023/03/12 06:12:54;;;;;;;7.53;5.10;;;2.70;90.50;;;;;;5076868;28;20193;-84
2023/03/12 06:15:21;;;;;;;6.17;4.97;;;2.70;89.80;;;;;;5079844;28;20271;-83
2023/03/12 06:17:47;;;;;;;8.83;5.00;;;2.80;89.80;;;;;;5083299;28;20216;-83
2023/03/12 06:20:15;;;;;;;6.93;4.77;;;2.80;89.50;;;;;;5082572;28;20207;-83
2023/03/12 06:22:42;;;;;;;6.93;4.93;;;2.80;90.40;;;;;;5083854;28;20658;-84
2023/03/12 06:25:10;;;;;;;6.93;4.70;;;2.80;90.30;;;;;;5082939;28;20204;-83
2023/03/12 06:27:37;;;;;;;6.27;4.50;;;2.90;90.00;;;;;;5076025;28;20201;-84
2023/03/12 06:30:05;;;;;;;6.17;5.00;;;2.90;89.40;;;;;;5076140;28;20208;-84
2023/03/12 06:32:32;;;;;;;6.53;4.70;;;2.90;89.60;;;;;;5082797;28;20200;-84
2023/03/12 06:35:00;;;;;;;6.77;4.50;;;2.90;89.80;;;;;;5076807;28;20224;-83
2023/03/12 06:37:27;;;;;;;6.03;4.67;;;2.90;90.00;;;;;;5089153;28;20340;-85
2023/03/12 06:39:55;;;;;;;6.13;4.63;;;3.00;89.80;;;;;;5083592;28;20204;-85
2023/03/12 06:42:25;;;;;;;6.13;4.60;;;3.20;89.70;;;;;;5087733;28;20197;-85
2023/03/12 06:44:52;;;;;;;4.80;3.90;;;3.30;88.20;;;;;;5080696;28;20200;-85
2023/03/12 06:47:19;;;;;;;8.27;4.50;;;3.40;88.00;;;;;;5082666;28;20651;-86
2023/03/12 06:49:46;;;;;;;6.10;4.37;;;3.60;88.10;;;;;;5078245;28;20228;-85
2023/03/12 06:52:14;;;;;;;5.60;4.17;;;3.60;88.10;;;;;;5085133;28;20197;-85
2023/03/12 06:54:41;;;;;;;3.90;3.50;;;3.60;88.10;;;;;;5081074;28;20249;-85
2023/03/12 06:57:07;;;;;;;5.73;4.00;;;3.60;88.10;;;;;;5079629;28;20197;-85
2023/03/12 06:59:36;;;;;;;4.93;3.60;;;3.70;88.20;;;;;;5082266;28;20246;-81
2023/03/12 07:02:03;;;;;;;5.43;3.80;;;3.70;86.30;;;;;;5079607;28;20196;-82
2023/03/12 07:04:29;;;;;;;5.17;3.60;;;3.80;87.70;;;;;;5081414;28;20205;-82
2023/03/12 07:06:56;;;;;;;4.67;3.70;;;3.70;88.20;;;;;;5078231;28;20189;-82
2023/03/12 07:09:23;;;;;;;4.10;3.70;;;3.80;88.30;;;;;;5084562;28;20205;-83
2023/03/12 07:11:50;;;;;;;7.13;4.03;;;3.80;88.30;;;;;;5074861;28;20208;-83
2023/03/12 07:14:19;;;;;;;5.67;3.67;;;3.90;88.30;;;;;;5076553;28;20229;-82
2023/03/12 07:16:47;;;;;;;7.63;3.80;;;4.10;88.40;;;;;;5074049;28;20277;-83
2023/03/12 07:19:14;;;;;;;5.13;3.00;;;4.10;88.50;;;;;;5080684;28;20196;-83
2023/03/12 07:21:41;;;;;;;4.20;3.17;;;4.10;88.40;;;;;;5077327;28;20683;-86
2023/03/12 07:24:08;;;;;;;6.20;3.00;;;4.20;90.00;;;;;;5080274;28;20212;-82
2023/03/12 07:26:35;;;;;;;4.60;3.40;;;4.30;89.10;;;;;;5082138;28;20201;-85
2023/03/12 07:29:03;;;;;;;5.17;2.80;;;4.50;88.70;;;;;;5076265;28;20657;-86
2023/03/12 07:31:30;;;;;;;4.73;3.27;;;4.40;90.00;;;;;;5074784;28;20232;-85
2023/03/12 07:33:58;;;;;;;5.17;3.43;;;4.30;91.10;;;;;;5081991;28;20213;-84
2023/03/12 07:36:25;;;;;;;5.77;2.77;;;4.20;91.90;;;;;;5079764;28;20676;-84
2023/03/12 07:38:52;;;;;;;3.60;2.60;;;4.30;92.20;;;;;;5082607;28;20192;-87
2023/03/12 07:41:19;;;;;;;4.50;2.17;;;4.40;92.50;;;;;;5077996;28;20200;-84
2023/03/12 07:43:47;;;;;;;3.40;2.37;;;4.50;92.60;;;;;;5091192;28;20208;-84
2023/03/12 07:46:15;;;;;;;4.27;2.47;;;4.60;93.00;;;;;;5085833;28;20200;-85
2023/03/12 07:48:42;;;;;;;4.13;2.50;;;4.90;91.90;;;;;;5078235;28;20212;-84
2023/03/12 07:51:10;;;;;;;4.72;2.70;;;4.90;91.80;;;;;;5085224;28;20592;-85
2023/03/12 07:53:37;;;;;;;4.72;2.90;;;5.10;91.50;;;;;;5074164;28;20205;-85
2023/03/12 07:56:04;;;;;;;3.87;2.70;;;5.20;92.00;;;;;;5072076;28;20213;-84
2023/03/12 07:58:31;;;;;;;6.03;2.35;;;5.40;91.40;;;;;;5083200;28;20196;-85
2023/03/12 08:00:58;;;;;;;4.07;2.40;;;5.70;89.40;;;;;;5077118;28;20217;-87
2023/03/12 08:03:25;;;;;;;3.92;2.20;;;5.60;91.10;;;;;;5078504;28;20208;-86
2023/03/12 08:06:00;;;;;;;3.50;2.60;;;5.50;91.20;;;;;;5079351;28;20652;-87
2023/03/12 08:08:29;;;;;;;3.90;2.60;;;5.50;91.40;;;;;;5077692;28;20197;-88
2023/03/12 08:10:56;;;;;;;3.88;2.40;;;5.50;91.10;;;;;;5077080;28;20253;-86
2023/03/12 08:13:24;;;;;;;4.10;2.35;;;5.50;91.30;;;;;;5077024;28;20197;-87
2023/03/12 08:15:52;;;;;;;3.08;2.28;;;5.40;91.10;;;;;;5077239;28;20217;-85
2023/03/12 08:18:20;;;;;;;2.53;2.13;;;5.30;91.30;;;;;;5075595;28;20574;-84
2023/03/12 08:20:50;;;;;;;3.65;2.10;;;5.40;91.30;;;;;;5075229;28;20247;-87
2023/03/12 08:23:18;;;;;;;4.30;2.08;;;5.40;91.20;;;;;;5077843;28;20244;-83
2023/03/12 08:25:47;;;;;;;4.50;2.20;;;5.50;90.20;;;;;;5075757;28;20574;-84
2023/03/12 08:28:14;;;;;;;4.05;2.47;;;5.40;89.20;;;;;;5083870;28;20672;-84
2023/03/12 08:30:46;;;;;;;3.38;2.05;;;5.30;90.70;;;;;;5076569;28;20196;-84
2023/03/12 08:33:12;;;;;;;4.00;2.10;;;5.30;90.50;;;;;;5072350;28;20189;-83
2023/03/12 08:35:40;;;;;;;4.45;2.40;;;5.30;90.70;;;;;;5085704;28;20587;-84
2023/03/12 08:38:07;;;;;;;3.00;2.10;;;5.50;90.90;;;;;;5071116;28;20204;-85
2023/03/12 08:40:35;;;;;;;3.63;2.25;;;5.50;90.70;;;;;;5074932;28;20205;-85
2023/03/12 08:43:08;;;;;;;4.68;2.45;;;5.40;90.90;;;;;;5075719;28;20196;-84
2023/03/12 08:45:37;;;;;;;3.00;2.60;;;5.30;90.90;;;;;;5075283;28;20205;-86
2023/03/12 08:48:04;;;;;;;5.30;2.28;;;5.20;91.60;;;;;;5067994;28;20201;-84
2023/03/12 08:50:32;;;;;;;3.17;2.40;;;5.30;92.10;;;;;;5074904;28;20201;-87
2023/03/12 08:52:59;;;;;;;3.90;2.50;;;5.50;90.80;;;;;;5080600;28;20208;-82
2023/03/12 08:55:27;;;;;;;2.90;2.50;;;5.50;90.90;;;;;;5077284;28;21177;-86
2023/03/12 08:57:55;;;;;;;4.63;2.38;;;5.40;91.60;;;;;;5079100;28;20243;-84
2023/03/12 09:00:24;;;;;;;4.25;2.53;;;5.60;91.80;;;;;;5073532;28;20625;-86
2023/03/12 09:02:52;;;;;;;2.40;2.13;;;5.70;92.30;;;;;;5076245;28;20197;-86
2023/03/12 09:05:23;;;;;;;2.75;2.33;;;5.70;92.80;;;;;;5077616;28;20699;-86
2023/03/12 09:07:50;;;;;;;2.97;2.67;;;5.80;92.90;;;;;;5073440;28;20197;-87
2023/03/12 09:10:18;;;;;;;2.53;2.27;;;5.70;93.70;;;;;;5080972;28;20193;-86
2023/03/12 09:12:46;;;;;;;2.90;2.63;;;5.60;94.50;;;;;;5079240;28;20567;-91
2023/03/12 09:15:13;;;;;;;3.08;2.40;;;5.60;95.20;;;;;;5085309;28;20212;-90
2023/03/12 09:17:44;;;;;;;3.10;2.13;;;5.60;95.30;;;;;;5086313;28;20193;-89
2023/03/12 09:20:13;;;;;;;2.60;1.80;;;6.00;94.60;;;;;;5076337;28;20201;-90
2023/03/12 09:25:24;;;;;;;1.90;1.80;;;6.30;93.70;;;;;;5231934;22;20232;-86
2023/03/12 09:27:51;;;;;;;2.25;2.00;;;6.20;93.50;;;;;;5056874;28;20197;-84
2023/03/12 09:30:20;;;;;;;1.95;1.55;;;6.20;94.40;;;;;;5074823;28;20200;-88
2023/03/12 09:32:48;;;;;;;1.98;1.77;;;6.10;93.90;;;;;;5073588;28;20910;-88
2023/03/12 09:35:17;;;;;;;1.90;1.80;;;6.20;93.00;;;;;;5072710;28;20225;-85
2023/03/12 09:37:47;;;;;;;2.10;1.73;;;6.00;94.10;;;;;;5072938;28;20197;-88
2023/03/12 09:40:27;;;;;;;1.88;1.75;;;6.00;94.10;;;;;;5070934;28;20209;-87
2023/03/12 09:42:57;;;;;;;2.30;2.10;;;5.80;94.00;;;;;;5055023;28;21550;-84
2023/03/12 09:45:27;;;;;;;2.17;1.98;;;5.70;95.20;;;;;;5075050;28;20193;-86
2023/03/12 09:47:59;;;;;;;2.40;2.20;;;5.60;95.20;;;;;;5050914;28;20618;-89
2023/03/12 09:50:29;;;;;;;4.95;3.20;;;5.70;95.20;;;;;;5058364;28;20200;-87
2023/03/12 09:53:01;;;;;;;1.88;1.70;;;5.70;95.20;;;;;;5054278;28;20185;-89
2023/03/12 09:55:33;;;;;;;2.07;1.80;;;5.40;94.80;;;;;;5076276;28;20214;-91
2023/03/12 09:57:59;;;;;;;3.27;2.87;;;5.20;95.10;;;;;;5080918;28;20844;-91
2023/03/12 10:00:31;;;;;;;2.63;2.17;;;5.20;96.20;;;;;;5080665;28;20199;-93
2023/03/12 10:03:26;;;;;;;2.60;2.40;;;5.30;95.10;;;;;;5096250;28;20208;-83
2023/03/12 10:06:06;;;;;;;2.43;2.23;;;5.40;95.70;;;;;;5081480;28;20550;-83
2023/03/12 10:08:43;;;;;;;2.40;2.20;;;5.40;95.20;;;;;;5070430;28;20201;-85
2023/03/12 10:11:18;;;;;;;2.20;2.00;;;5.30;94.80;;;;;;5070067;28;20190;-82
2023/03/12 10:13:59;;;;;;;2.10;1.83;;;5.20;95.10;;;;;;5054408;28;20205;-84
2023/03/12 10:16:45;;;;;;;2.53;2.20;;;5.30;95.40;;;;;;5069699;28;20274;-85
2023/03/12 10:19:30;;;;;;;2.67;2.30;;;5.40;95.60;;;;;;5072196;28;20194;-84
2023/03/12 10:22:06;;;;;;;2.50;1.90;;;5.20;95.60;;;;;;5066033;28;20224;-81
2023/03/12 10:24:43;;;;;;;2.90;2.60;;;5.20;95.10;;;;;;5063093;28;20659;-82
2023/03/12 10:27:14;;;;;;;2.67;2.47;;;5.30;95.40;;;;;;5063764;28;20224;-83
2023/03/12 10:29:45;;;;;;;3.20;2.90;;;5.40;95.70;;;;;;5065130;28;20669;-84
2023/03/12 10:32:17;;;;;;;2.53;2.33;;;5.60;95.20;;;;;;5066123;28;20199;-85
2023/03/12 10:34:48;;;;;;;2.63;2.30;;;5.70;96.10;;;;;;5062550;28;20205;-85
2023/03/12 10:37:20;;;;;;;2.63;2.43;;;5.70;95.40;;;;;;5065398;28;20193;-84
2023/03/12 10:39:48;;;;;;;3.10;2.73;;;5.70;95.20;;;;;;5041189;28;20281;-84
2023/03/12 10:42:18;;;;;;;2.73;2.53;;;5.40;95.50;;;;;;5062175;28;20215;-85
2023/03/12 10:44:47;;;;;;;2.77;2.40;;;5.30;95.90;;;;;;5058634;28;20603;-84
2023/03/12 10:47:28;;;;;;;1.90;1.80;;;5.10;96.60;;;;;;5061625;28;20193;-83
2023/03/12 10:50:13;;;;;;;3.10;2.80;;;5.00;96.60;;;;;;5060208;28;20200;-88
2023/03/12 10:52:39;;;;;;;2.43;2.23;;;4.90;96.80;;;;;;5060048;28;20202;-82
2023/03/12 10:55:13;;;;;;;3.47;3.00;;;4.90;97.20;;;;;;5064207;28;20240;-82
2023/03/12 10:57:41;;;;;;;3.20;2.77;;;5.00;97.40;;;;;;5050725;28;20201;-86
2023/03/12 11:00:12;;;;;;;3.37;3.07;;;5.10;97.40;;;;;;5068639;28;20194;-90
2023/03/12 11:02:43;;;;;;;3.57;3.00;;;5.20;98.20;;;;;;5062550;28;20545;-86
2023/03/12 11:05:22;;;;;;;4.03;3.00;;;5.30;97.80;;;;;;5066134;28;20202;-86
2023/03/12 11:07:50;;;;;;;3.37;3.00;;;5.40;97.80;;;;;;5066484;28;20254;-87
2023/03/12 11:10:20;;;;;;;3.03;2.40;;;5.50;97.30;;;;;;5059543;28;20197;-88
2023/03/12 11:13:02;;;;;;;3.97;2.50;;;5.40;97.10;;;;;;5065791;28;20740;-84
2023/03/12 11:15:37;;;;;;;2.50;2.30;;;5.50;97.00;;;;;;5046195;28;20232;-85
2023/03/12 11:18:20;;;;;;;3.13;2.40;;;5.50;97.40;;;;;;5059431;28;20197;-89
2023/03/12 11:20:51;;;;;;;2.77;2.50;;;5.60;97.40;;;;;;5062084;28;20200;-86
2023/03/12 11:23:21;;;;;;;2.63;2.37;;;5.70;97.40;;;;;;5055335;28;20228;-89
2023/03/12 11:25:53;;;;;;;3.40;2.53;;;5.90;96.80;;;;;;5050268;28;20623;-86
2023/03/12 11:28:23;;;;;;;2.85;2.40;;;5.90;96.70;;;;;;5064207;28;20212;-83
2023/03/12 11:30:53;;;;;;;4.22;2.50;;;6.20;96.80;;;;;;5046809;28;20206;-84
2023/03/12 11:33:20;;;;;;;3.92;2.47;;;6.50;95.60;;;;;;5065060;28;20201;-83
2023/03/12 11:36:02;;;;;;;2.88;2.45;;;6.60;96.20;;;;;;5068130;28;20735;-87
2023/03/12 11:38:34;;;;;;;2.97;2.15;;;6.70;95.40;;;;;;5064397;28;20234;-86
2023/03/12 11:41:11;;;;;;;4.22;1.90;;;7.00;95.50;;;;;;5048702;28;20263;-84
2023/03/12 11:43:58;;;;;;;1.92;1.70;;;7.00;94.60;;;;;;5048167;28;20659;-86
2023/03/12 11:46:37;;;;;;;2.00;1.80;;;6.70;95.40;;;;;;5066636;28;20193;-85
2023/03/12 11:49:14;;;;;;;2.53;1.50;;;6.70;96.90;;;;;;5063918;28;20201;-88
2023/03/12 11:51:51;;;;;;;3.08;2.00;;;6.80;96.60;;;;;;5067235;28;20201;-86
2023/03/12 11:54:38;;;;;;;2.45;1.70;;;7.00;96.60;;;;;;5043767;28;20322;-85
2023/03/12 11:57:14;;;;;;;1.98;1.40;;;6.90;96.70;;;;;;5059599;28;20647;-83
2023/03/12 12:00:08;;;;;;;2.72;1.95;;;6.90;96.10;;;;;;5067355;28;20212;-83
2023/03/12 12:02:58;;;;;;;1.60;1.50;;;6.80;96.20;;;;;;5060928;28;20630;-86
2023/03/12 12:05:33;;;;;;;2.65;1.63;;;6.70;97.10;;;;;;5058681;28;20204;-86
2023/03/12 12:08:18;;;;;;;1.80;1.50;;;6.80;97.70;;;;;;5070407;28;20266;-86
2023/03/12 12:10:55;;;;;;;1.65;1.55;;;6.80;98.10;;;;;;5064935;28;20563;-87
2023/03/12 12:13:31;;;;;;;1.85;1.42;;;6.80;97.80;;;;;;5067920;28;20204;-88
2023/03/12 12:16:09;;;;;;;2.00;1.75;;;6.90;97.30;;;;;;5058066;28;20560;-88
2023/03/12 12:18:51;;;;;;;1.80;1.50;;;7.00;97.10;;;;;;5031295;28;20201;-85
2023/03/12 12:21:35;;;;;;;2.88;1.50;;;7.20;96.80;;;;;;5061662;28;20193;-83
2023/03/12 12:24:14;;;;;;;1.85;1.45;;;7.20;97.40;;;;;;5059626;28;20208;-84
2023/03/12 12:26:47;;;;;;;2.38;2.10;;;7.20;97.70;;;;;;5065994;28;20566;-84
2023/03/12 12:29:36;;;;;;;2.13;1.75;;;7.10;98.10;;;;;;5065712;28;20198;-85
2023/03/12 12:32:05;;;;;;;1.95;1.70;;;7.10;98.50;;;;;;5065052;28;20198;-87
2023/03/12 12:34:53;;;;;;;2.20;1.88;;;7.20;98.10;;;;;;5059895;28;20210;-88
2023/03/12 12:37:34;;;;;;;2.58;2.38;;;7.20;99.00;;;;;;5053487;28;20222;-89
2023/03/12 12:40:15;;;;;;;2.67;2.47;;;7.20;99.30;;;;;;5066595;28;20929;-90
2023/03/12 12:42:52;;;;;;;3.08;2.50;;;7.50;99.30;;;;;;5030818;28;20227;-92
2023/03/12 12:45:23;;;;;;;4.15;2.47;;;7.50;98.70;;;;;;5068234;28;20204;-94
2023/03/12 12:50:40;;;;;;;4.72;2.47;;;7.60;99.40;;;;;;5060990;28;20208;-88
2023/03/12 12:53:15;;;;;;;3.03;2.72;;;7.80;99.20;;;;;;5043266;28;20280;-90
2023/03/12 12:55:49;;;;;;;7.30;4.57;;;7.80;99.20;;;;;;5043094;28;20216;-89
2023/03/12 12:58:23;;;;;;;2.95;2.45;;;7.80;99.50;;;;;;5046969;28;20212;-88
2023/03/12 13:00:53;;;;;;;2.97;2.78;;;7.80;99.20;;;;;;5063175;28;20199;-92
2023/03/12 13:06:05;;;;;;;2.97;2.58;;;8.00;99.20;;;;;;5054678;28;20919;-90
2023/03/12 13:09:14;;;;;;;3.22;2.53;;;8.00;99.30;;;;;;5067141;28;20205;-90
2023/03/12 13:11:45;;;;;;;3.97;2.70;;;8.00;99.40;;;;;;5066285;28;20197;-89
2023/03/12 13:14:34;;;;;;;3.42;2.95;;;8.00;99.50;;;;;;5060809;28;20190;-90
2023/03/12 13:20:13;;;;;;;3.17;2.70;;;8.10;99.90;;;;;;5066120;28;20286;-90
2023/03/12 13:23:16;;;;;;;3.83;2.55;;;8.40;99.80;;;;;;5062293;28;20239;-89
2023/03/12 13:41:01;;;;;;;4.43;2.75;;;9.10;98.50;;;;;;5024053;28;20204;-88